VOZ617 YMML-KSFO
Flight info
| Callsign | VOZ617 |
|---|---|
| Flight time | N/A |
| Altitude | 31000 |
| Route | DOSEL Y59 TESAT G595 SOTKI DCT UBLIN/N0494F330 A579 TANIL DCT NN B581 WOOBY/N0490F350 DCT 05N160W 10N156W 15N151W/N0481F370 20N146W 25N141W 29N135W 33N130W DCT CINNY PIRAT3 |
| Aircraft | B77W/H-SDE1E2E3FGHIJ2J3J4J5M1RWXY/LB1D1 |
Departure
| Time | 2026-05-08 07:15 |
|---|---|
| Airport | Melbourne Airport (YMML) |
Arrival
| Time | N/A |
|---|---|
| Airport | San Francisco International Airport (KSFO) |
| Time | Latitude | Longitude | Altitude | Speed | Heading |
|---|---|---|---|---|---|
| 2026-05-08 05:58 | -37.66750 | 144.84543 | 402 ft | 0 kts | 172° |
| 2026-05-08 07:02 | -37.66747 | 144.84541 | 402 ft | 2 kts | 172° |
| 2026-05-08 07:03 | -37.66733 | 144.84540 | 402 ft | 2 kts | 173° |
| 2026-05-08 07:03 | -37.66718 | 144.84537 | 402 ft | 2 kts | 176° |
| 2026-05-08 07:03 | -37.66701 | 144.84538 | 403 ft | 2 kts | 195° |
| 2026-05-08 07:03 | -37.66687 | 144.84546 | 403 ft | 2 kts | 209° |
| 2026-05-08 07:04 | -37.66673 | 144.84557 | 403 ft | 2 kts | 223° |
| 2026-05-08 07:04 | -37.66663 | 144.84572 | 403 ft | 2 kts | 237° |
| 2026-05-08 07:04 | -37.66656 | 144.84590 | 404 ft | 2 kts | 252° |
| 2026-05-08 07:04 | -37.66653 | 144.84604 | 404 ft | 1 kts | 262° |
| 2026-05-08 07:05 | -37.66653 | 144.84605 | 404 ft | 0 kts | 262° |
| 2026-05-08 07:06 | -37.66655 | 144.84582 | 404 ft | 6 kts | 262° |
| 2026-05-08 07:06 | -37.66663 | 144.84520 | 402 ft | 7 kts | 261° |
| 2026-05-08 07:07 | -37.66671 | 144.84454 | 401 ft | 8 kts | 261° |
| 2026-05-08 07:07 | -37.66680 | 144.84381 | 399 ft | 8 kts | 263° |
| 2026-05-08 07:07 | -37.66685 | 144.84329 | 398 ft | 4 kts | 261° |
| 2026-05-08 07:07 | -37.66690 | 144.84291 | 398 ft | 4 kts | 261° |
| 2026-05-08 07:08 | -37.66695 | 144.84238 | 398 ft | 8 kts | 269° |
| 2026-05-08 07:08 | -37.66655 | 144.84169 | 399 ft | 11 kts | 344° |
| 2026-05-08 07:08 | -37.66582 | 144.84158 | 402 ft | 8 kts | 350° |
| 2026-05-08 07:08 | -37.66542 | 144.84149 | 404 ft | 3 kts | 350° |
| 2026-05-08 07:09 | -37.66513 | 144.84143 | 405 ft | 6 kts | 350° |
| 2026-05-08 07:09 | -37.66444 | 144.84128 | 409 ft | 12 kts | 351° |
| 2026-05-08 07:09 | -37.66340 | 144.84109 | 415 ft | 17 kts | 351° |
| 2026-05-08 07:09 | -37.66214 | 144.84087 | 420 ft | 16 kts | 352° |
| 2026-05-08 07:10 | -37.66119 | 144.84068 | 422 ft | 13 kts | 351° |
| 2026-05-08 07:10 | -37.66022 | 144.84050 | 424 ft | 14 kts | 351° |
| 2026-05-08 07:10 | -37.65919 | 144.84030 | 426 ft | 15 kts | 351° |
| 2026-05-08 07:10 | -37.65808 | 144.84010 | 429 ft | 16 kts | 351° |
| 2026-05-08 07:11 | -37.65710 | 144.83990 | 431 ft | 12 kts | 351° |
| 2026-05-08 07:11 | -37.65622 | 144.83974 | 432 ft | 14 kts | 351° |
| 2026-05-08 07:11 | -37.65511 | 144.83951 | 433 ft | 16 kts | 348° |
| 2026-05-08 07:11 | -37.65411 | 144.83923 | 435 ft | 12 kts | 347° |
| 2026-05-08 07:12 | -37.65340 | 144.83902 | 436 ft | 8 kts | 347° |
| 2026-05-08 07:12 | -37.65295 | 144.83890 | 438 ft | 4 kts | 347° |
| 2026-05-08 07:12 | -37.65271 | 144.83882 | 438 ft | 3 kts | 347° |
| 2026-05-08 07:12 | -37.65242 | 144.83870 | 439 ft | 6 kts | 330° |
| 2026-05-08 07:13 | -37.65218 | 144.83813 | 441 ft | 8 kts | 266° |
| 2026-05-08 07:13 | -37.65257 | 144.83752 | 443 ft | 11 kts | 213° |
| 2026-05-08 07:13 | -37.65301 | 144.83696 | 444 ft | 7 kts | 245° |
| 2026-05-08 07:13 | -37.65314 | 144.83633 | 446 ft | 7 kts | 260° |
| 2026-05-08 07:14 | -37.65322 | 144.83568 | 447 ft | 8 kts | 261° |
| 2026-05-08 07:14 | -37.65348 | 144.83511 | 447 ft | 8 kts | 197° |
| 2026-05-08 07:14 | -37.65387 | 144.83508 | 447 ft | 0 kts | 174° |
| 2026-05-08 07:14 | -37.65389 | 144.83508 | 446 ft | 6 kts | 174° |
| 2026-05-08 07:15 | -37.65644 | 144.83553 | 438 ft | 74 kts | 172° |
| 2026-05-08 07:15 | -37.66359 | 144.83684 | 418 ft | 139 kts | 171° |
| 2026-05-08 07:15 | -37.67444 | 144.83884 | 408 ft | 191 kts | 173° |
| 2026-05-08 07:15 | -37.68745 | 144.84129 | 1085 ft | 196 kts | 172° |
| 2026-05-08 07:16 | -37.70034 | 144.84416 | 1984 ft | 190 kts | 172° |
| 2026-05-08 07:16 | -37.71314 | 144.84677 | 2264 ft | 202 kts | 175° |
| 2026-05-08 07:16 | -37.72687 | 144.84897 | 2577 ft | 210 kts | 175° |
| 2026-05-08 07:16 | -37.74070 | 144.84970 | 2977 ft | 214 kts | 191° |
| 2026-05-08 07:17 | -37.75419 | 144.84419 | 3357 ft | 221 kts | 208° |
| 2026-05-08 07:17 | -37.76602 | 144.83315 | 3811 ft | 225 kts | 225° |
| 2026-05-08 07:17 | -37.77439 | 144.81779 | 4293 ft | 230 kts | 244° |
| 2026-05-08 07:17 | -37.77879 | 144.79822 | 4580 ft | 249 kts | 261° |
| 2026-05-08 07:18 | -37.77747 | 144.77634 | 5023 ft | 261 kts | 283° |
| 2026-05-08 07:18 | -37.77124 | 144.75513 | 5561 ft | 266 kts | 287° |
| 2026-05-08 07:18 | -37.76469 | 144.73467 | 6360 ft | 259 kts | 288° |
| 2026-05-08 07:18 | -37.75760 | 144.71353 | 6646 ft | 272 kts | 288° |
| 2026-05-08 07:19 | -37.75015 | 144.69162 | 7176 ft | 275 kts | 288° |
| 2026-05-08 07:19 | -37.74382 | 144.67305 | 7670 ft | 277 kts | 288° |
| 2026-05-08 07:19 | -37.73618 | 144.65065 | 8208 ft | 280 kts | 288° |
| 2026-05-08 07:19 | -37.72869 | 144.62872 | 8768 ft | 281 kts | 288° |
| 2026-05-08 07:20 | -37.72144 | 144.60716 | 9265 ft | 283 kts | 285° |
| 2026-05-08 07:20 | -37.71184 | 144.58585 | 9702 ft | 295 kts | 308° |
| 2026-05-08 07:20 | -37.69542 | 144.57036 | 10123 ft | 308 kts | 333° |
| 2026-05-08 07:20 | -37.67470 | 144.56412 | 10495 ft | 320 kts | 358° |
| 2026-05-08 07:21 | -37.65358 | 144.56702 | 10844 ft | 329 kts | 9° |
| 2026-05-08 07:21 | -37.63071 | 144.57294 | 11005 ft | 346 kts | 11° |
| 2026-05-08 07:21 | -37.60739 | 144.58028 | 11170 ft | 363 kts | 21° |
| 2026-05-08 07:21 | -37.58623 | 144.59476 | 11249 ft | 379 kts | 40° |
| 2026-05-08 07:22 | -37.56870 | 144.61795 | 11333 ft | 392 kts | 56° |
| 2026-05-08 07:22 | -37.55382 | 144.64597 | 11781 ft | 399 kts | 59° |
| 2026-05-08 07:22 | -37.53907 | 144.67468 | 12510 ft | 399 kts | 59° |
| 2026-05-08 07:22 | -37.52417 | 144.70369 | 13239 ft | 399 kts | 59° |
| 2026-05-08 07:23 | -37.50983 | 144.73160 | 13780 ft | 403 kts | 59° |
| 2026-05-08 07:23 | -37.49483 | 144.76077 | 14347 ft | 407 kts | 59° |
| 2026-05-08 07:23 | -37.47955 | 144.79047 | 14912 ft | 411 kts | 59° |
| 2026-05-08 07:23 | -37.46560 | 144.81753 | 15454 ft | 414 kts | 59° |
| 2026-05-08 07:24 | -37.45035 | 144.84711 | 16025 ft | 417 kts | 59° |
| 2026-05-08 07:24 | -37.43442 | 144.87796 | 16571 ft | 420 kts | 59° |
| 2026-05-08 07:24 | -37.41876 | 144.90830 | 17109 ft | 424 kts | 59° |
| 2026-05-08 07:24 | -37.40294 | 144.93887 | 17651 ft | 426 kts | 59° |
| 2026-05-08 07:25 | -37.38666 | 144.97032 | 18235 ft | 428 kts | 59° |
| 2026-05-08 07:25 | -37.37047 | 145.00157 | 18772 ft | 431 kts | 59° |